This is the latest recevied weather packets stored in our database for station/object VK3MAK-1. If no packets are shown the sender has not sent any weather packets the latest 10 day(s).
| Time | Temp. | Humidity | Pressure | Rain* | Wind** | Luminosity | Snow |
|---|---|---|---|---|---|---|---|
| 1777581604 | 12.22° C | 58% | 1022 hPa | 0 mm | 4.02 m/s, 23° | - | - |
| 1777581004 | 12.78° C | 55% | 1021.9 hPa | 0 mm | 3.58 m/s, 0° | - | - |
| 1777580403 | 12.78° C | 55% | 1021.9 hPa | 0 mm | 3.58 m/s, 0° | - | - |
| 1777579804 | 12.78° C | 55% | 1021.9 hPa | 0 mm | 3.58 m/s, 0° | - | - |
| 1777579204 | 13.33° C | 54% | 1021.8 hPa | 0 mm | 4.02 m/s, 23° | - | - |
| 1777578604 | 13.33° C | 54% | 1021.8 hPa | 0 mm | 4.02 m/s, 23° | - | - |
| 1777578003 | 13.33° C | 54% | 1021.8 hPa | 0 mm | 4.02 m/s, 23° | - | - |
| 1777577404 | 11.11° C | 63% | 1021.6 hPa | 0 mm | 3.13 m/s, 23° | - | - |
| 1777576804 | 11.11° C | 63% | 1021.6 hPa | 0 mm | 3.13 m/s, 23° | - | - |
| 1777576203 | 11.11° C | 63% | 1021.6 hPa | 0 mm | 3.13 m/s, 23° | - | - |
| 1777575604 | 11.11° C | 60% | 1021.6 hPa | 0 mm | 1.79 m/s, 0° | - | - |
| 1777575004 | 11.11° C | 60% | 1021.6 hPa | 0 mm | 1.79 m/s, 0° | - | - |
| 1777574404 | 11.11° C | 60% | 1021.6 hPa | 0 mm | 1.79 m/s, 0° | - | - |
| 1777573803 | 13.33° C | 54% | 1021.5 hPa | 0 mm | 2.68 m/s, 0° | - | - |
| 1777573203 | 13.33° C | 54% | 1021.5 hPa | 0 mm | 2.68 m/s, 0° | - | - |
| 1777572608 | 13.33° C | 54% | 1021.5 hPa | 0 mm | 2.68 m/s, 0° | - | - |
| 1777572004 | 13.89° C | 53% | 1021.4 hPa | 0 mm | 3.13 m/s, 23° | - | - |
| 1777571404 | 13.89° C | 53% | 1021.4 hPa | 0 mm | 3.13 m/s, 23° | - | - |
| 1777570803 | 13.89° C | 53% | 1021.4 hPa | 0 mm | 3.13 m/s, 23° | - | - |
| 1777570204 | 13.33° C | 53% | 1021.8 hPa | 0 mm | 2.24 m/s, 23° | - | - |
| 1777569604 | 13.33° C | 53% | 1021.8 hPa | 0 mm | 2.24 m/s, 23° | - | - |
| 1777569003 | 13.33° C | 53% | 1021.8 hPa | 0 mm | 2.24 m/s, 23° | - | - |
| 1777568404 | 13.89° C | 53% | 1021.9 hPa | 0 mm | 2.68 m/s, 23° | - | - |
| 1777567803 | 13.89° C | 53% | 1021.9 hPa | 0 mm | 2.68 m/s, 23° | - | - |
| 1777567203 | 13.89° C | 53% | 1021.9 hPa | 0 mm | 2.68 m/s, 23° | - | - |
* Rain latest hour (hover to see other rain measurements)
** Current wind speed in m/s (hover to see current wind gust speed)